sensor_id;sensor_type;location;lat;lon;timestamp;pressure;altitude;pressure_sealevel;temperature;humidity
18678;BME280;9469;51.114;13.914;2022-09-30T00:03:31;97982.31;;;8.05;100.00
18678;BME280;9469;51.114;13.914;2022-09-30T00:08:38;97979.72;;;7.91;100.00
18678;BME280;9469;51.114;13.914;2022-09-30T00:13:44;97972.41;;;7.88;100.00
18678;BME280;9469;51.114;13.914;2022-09-30T00:18:53;97980.81;;;7.90;100.00
18678;BME280;9469;51.114;13.914;2022-09-30T00:23:59;97992.16;;;8.05;100.00
18678;BME280;9469;51.114;13.914;2022-09-30T00:29:04;97984.31;;;8.00;100.00
18678;BME280;9469;51.114;13.914;2022-09-30T00:34:12;97974.09;;;8.07;100.00
18678;BME280;9469;51.114;13.914;2022-09-30T00:39:20;97984.53;;;7.89;100.00
18678;BME280;9469;51.114;13.914;2022-09-30T00:44:50;97989.38;;;8.10;100.00
18678;BME280;9469;51.114;13.914;2022-09-30T00:50:02;97989.13;;;8.20;100.00
18678;BME280;9469;51.114;13.914;2022-09-30T00:55:14;98010.13;;;8.30;100.00
18678;BME280;9469;51.114;13.914;2022-09-30T01:00:24;98007.44;;;8.08;100.00
18678;BME280;9469;51.114;13.914;2022-09-30T01:05:32;98000.44;;;7.89;100.00
18678;BME280;9469;51.114;13.914;2022-09-30T01:10:38;98006.72;;;8.16;100.00
18678;BME280;9469;51.114;13.914;2022-09-30T01:15:55;97999.72;;;8.33;100.00
18678;BME280;9469;51.114;13.914;2022-09-30T01:21:42;98004.44;;;8.23;100.00
18678;BME280;9469;51.114;13.914;2022-09-30T01:27:04;98004.66;;;8.13;100.00
18678;BME280;9469;51.114;13.914;2022-09-30T01:32:23;98003.84;;;8.26;100.00
18678;BME280;9469;51.114;13.914;2022-09-30T01:37:38;97997.94;;;8.07;100.00
18678;BME280;9469;51.114;13.914;2022-09-30T01:42:53;97998.94;;;8.19;100.00
18678;BME280;9469;51.114;13.914;2022-09-30T01:48:08;98001.75;;;8.01;100.00
18678;BME280;9469;51.114;13.914;2022-09-30T01:53:22;98013.44;;;8.00;100.00
18678;BME280;9469;51.114;13.914;2022-09-30T01:58:38;98020.56;;;8.13;100.00
18678;BME280;9469;51.114;13.914;2022-09-30T02:03:51;98032.41;;;8.29;100.00
18678;BME280;9469;51.114;13.914;2022-09-30T02:09:00;98035.59;;;8.39;100.00
18678;BME280;9469;51.114;13.914;2022-09-30T02:14:11;98032.78;;;8.36;100.00
18678;BME280;9469;51.114;13.914;2022-09-30T02:19:23;98027.53;;;8.44;100.00
18678;BME280;9469;51.114;13.914;2022-09-30T02:24:33;98042.25;;;8.37;100.00
18678;BME280;9469;51.114;13.914;2022-09-30T02:29:43;98047.78;;;8.71;100.00
18678;BME280;9469;51.114;13.914;2022-09-30T02:34:55;98054.47;;;8.91;100.00
18678;BME280;9469;51.114;13.914;2022-09-30T02:40:06;98061.25;;;8.52;100.00
18678;BME280;9469;51.114;13.914;2022-09-30T02:45:15;98045.66;;;8.51;100.00
18678;BME280;9469;51.114;13.914;2022-09-30T02:50:30;98039.94;;;8.22;100.00
18678;BME280;9469;51.114;13.914;2022-09-30T02:55:43;98042.88;;;8.34;100.00
18678;BME280;9469;51.114;13.914;2022-09-30T03:00:53;98045.44;;;8.39;100.00
18678;BME280;9469;51.114;13.914;2022-09-30T03:06:01;98045.66;;;8.29;100.00
18678;BME280;9469;51.114;13.914;2022-09-30T03:11:06;98053.00;;;8.32;100.00
18678;BME280;9469;51.114;13.914;2022-09-30T03:16:21;98050.06;;;8.20;100.00
18678;BME280;9469;51.114;13.914;2022-09-30T03:21:42;98042.34;;;8.10;100.00
18678;BME280;9469;51.114;13.914;2022-09-30T03:26:54;98052.53;;;8.30;100.00
18678;BME280;9469;51.114;13.914;2022-09-30T03:32:10;98056.44;;;8.19;100.00
18678;BME280;9469;51.114;13.914;2022-09-30T03:37:28;98081.44;;;8.62;100.00
18678;BME280;9469;51.114;13.914;2022-09-30T03:42:37;98088.91;;;8.60;100.00
18678;BME280;9469;51.114;13.914;2022-09-30T03:47:47;98085.59;;;8.54;100.00
18678;BME280;9469;51.114;13.914;2022-09-30T03:52:56;98084.38;;;8.60;100.00
18678;BME280;9469;51.114;13.914;2022-09-30T03:58:02;98085.88;;;8.53;100.00
18678;BME280;9469;51.114;13.914;2022-09-30T04:03:08;98083.06;;;8.49;100.00
18678;BME280;9469;51.114;13.914;2022-09-30T04:08:16;98080.94;;;8.60;100.00
18678;BME280;9469;51.114;13.914;2022-09-30T04:13:21;98092.13;;;8.71;100.00
18678;BME280;9469;51.114;13.914;2022-09-30T04:18:26;98093.00;;;8.88;100.00
18678;BME280;9469;51.114;13.914;2022-09-30T04:23:36;98099.81;;;8.81;100.00
18678;BME280;9469;51.114;13.914;2022-09-30T04:28:42;98107.22;;;8.70;100.00
18678;BME280;9469;51.114;13.914;2022-09-30T04:33:47;98100.53;;;8.73;100.00
18678;BME280;9469;51.114;13.914;2022-09-30T04:38:55;98108.50;;;8.73;100.00
18678;BME280;9469;51.114;13.914;2022-09-30T04:44:00;98116.09;;;8.65;100.00
18678;BME280;9469;51.114;13.914;2022-09-30T04:49:08;98126.97;;;8.42;100.00
18678;BME280;9469;51.114;13.914;2022-09-30T04:54:15;98128.38;;;8.26;100.00
18678;BME280;9469;51.114;13.914;2022-09-30T04:59:20;98133.94;;;8.24;100.00
18678;BME280;9469;51.114;13.914;2022-09-30T05:04:25;98136.91;;;8.23;100.00
18678;BME280;9469;51.114;13.914;2022-09-30T05:09:37;98133.06;;;8.42;100.00
18678;BME280;9469;51.114;13.914;2022-09-30T05:14:41;98136.03;;;8.27;100.00
18678;BME280;9469;51.114;13.914;2022-09-30T05:19:47;98144.97;;;8.18;100.00
18678;BME280;9469;51.114;13.914;2022-09-30T05:24:54;98159.69;;;7.96;100.00
18678;BME280;9469;51.114;13.914;2022-09-30T05:30:01;98167.56;;;7.88;100.00
18678;BME280;9469;51.114;13.914;2022-09-30T05:35:07;98165.47;;;7.98;100.00
18678;BME280;9469;51.114;13.914;2022-09-30T05:40:16;98173.22;;;8.22;100.00
18678;BME280;9469;51.114;13.914;2022-09-30T05:45:20;98179.50;;;8.13;100.00
18678;BME280;9469;51.114;13.914;2022-09-30T05:50:26;98194.72;;;7.93;100.00
18678;BME280;9469;51.114;13.914;2022-09-30T05:55:34;98198.44;;;7.79;100.00
18678;BME280;9469;51.114;13.914;2022-09-30T06:00:41;98205.13;;;7.90;100.00
18678;BME280;9469;51.114;13.914;2022-09-30T06:05:46;98213.06;;;7.90;100.00
18678;BME280;9469;51.114;13.914;2022-09-30T06:10:54;98206.31;;;7.97;100.00
18678;BME280;9469;51.114;13.914;2022-09-30T06:16:01;98205.19;;;7.98;100.00
18678;BME280;9469;51.114;13.914;2022-09-30T06:21:08;98214.81;;;8.22;100.00
18678;BME280;9469;51.114;13.914;2022-09-30T06:26:16;98210.06;;;8.59;100.00
18678;BME280;9469;51.114;13.914;2022-09-30T06:31:24;98218.72;;;9.09;100.00
18678;BME280;9469;51.114;13.914;2022-09-30T06:36:30;98232.75;;;9.85;100.00
18678;BME280;9469;51.114;13.914;2022-09-30T06:41:38;98226.44;;;9.42;100.00
18678;BME280;9469;51.114;13.914;2022-09-30T06:46:53;98228.53;;;9.84;100.00
18678;BME280;9469;51.114;13.914;2022-09-30T06:52:01;98237.69;;;9.69;100.00
18678;BME280;9469;51.114;13.914;2022-09-30T06:57:11;98235.13;;;10.26;100.00
18678;BME280;9469;51.114;13.914;2022-09-30T07:02:17;98254.75;;;10.55;100.00
18678;BME280;9469;51.114;13.914;2022-09-30T07:07:25;98248.47;;;10.51;100.00
18678;BME280;9469;51.114;13.914;2022-09-30T07:12:37;98242.06;;;12.01;100.00
18678;BME280;9469;51.114;13.914;2022-09-30T07:17:43;98241.88;;;15.04;95.51
18678;BME280;9469;51.114;13.914;2022-09-30T07:22:51;98253.81;;;12.67;100.00
18678;BME280;9469;51.114;13.914;2022-09-30T07:27:59;98250.03;;;12.10;100.00
18678;BME280;9469;51.114;13.914;2022-09-30T07:33:09;98267.59;;;11.22;100.00
18678;BME280;9469;51.114;13.914;2022-09-30T07:38:18;98270.72;;;11.41;100.00
18678;BME280;9469;51.114;13.914;2022-09-30T07:43:28;98270.75;;;12.42;100.00
18678;BME280;9469;51.114;13.914;2022-09-30T07:48:36;98272.31;;;12.43;100.00
18678;BME280;9469;51.114;13.914;2022-09-30T07:53:50;98277.66;;;12.93;100.00
18678;BME280;9469;51.114;13.914;2022-09-30T07:59:05;98283.53;;;13.07;100.00
18678;BME280;9469;51.114;13.914;2022-09-30T08:04:14;98299.94;;;13.59;95.52
18678;BME280;9469;51.114;13.914;2022-09-30T08:09:21;98304.81;;;14.02;94.67
18678;BME280;9469;51.114;13.914;2022-09-30T08:14:30;98299.78;;;17.40;76.37
18678;BME280;9469;51.114;13.914;2022-09-30T08:19:35;98310.41;;;16.01;81.69
18678;BME280;9469;51.114;13.914;2022-09-30T08:24:44;98307.91;;;16.55;79.88
18678;BME280;9469;51.114;13.914;2022-09-30T08:29:52;98300.69;;;17.28;79.90
18678;BME280;9469;51.114;13.914;2022-09-30T08:35:02;98310.50;;;16.67;79.59
18678;BME280;9469;51.114;13.914;2022-09-30T08:40:16;98306.69;;;16.05;82.45
18678;BME280;9469;51.114;13.914;2022-09-30T08:45:33;98306.69;;;17.02;76.67
18678;BME280;9469;51.114;13.914;2022-09-30T08:50:53;98303.31;;;17.44;71.57
18678;BME280;9469;51.114;13.914;2022-09-30T08:56:04;98309.50;;;18.05;67.86
18678;BME280;9469;51.114;13.914;2022-09-30T09:01:18;98298.59;;;20.72;59.43
18678;BME280;9469;51.114;13.914;2022-09-30T09:06:31;98297.66;;;21.05;60.20
18678;BME280;9469;51.114;13.914;2022-09-30T09:11:47;98294.72;;;20.23;61.22
18678;BME280;9469;51.114;13.914;2022-09-30T09:17:13;98298.41;;;21.06;61.74
18678;BME280;9469;51.114;13.914;2022-09-30T09:22:24;98308.66;;;21.37;59.81
18678;BME280;9469;51.114;13.914;2022-09-30T09:27:39;98321.16;;;21.77;57.45
18678;BME280;9469;51.114;13.914;2022-09-30T09:32:51;98321.22;;;21.98;59.54
18678;BME280;9469;51.114;13.914;2022-09-30T09:38:03;98325.81;;;21.01;58.29
18678;BME280;9469;51.114;13.914;2022-09-30T09:43:42;98331.53;;;20.01;56.62
18678;BME280;9469;51.114;13.914;2022-09-30T09:54:33;98311.03;;;23.53;53.78
18678;BME280;9469;51.114;13.914;2022-09-30T09:59:54;98320.09;;;21.09;58.45
18678;BME280;9469;51.114;13.914;2022-09-30T10:04:59;98311.22;;;22.34;55.78
18678;BME280;9469;51.114;13.914;2022-09-30T10:10:17;98313.19;;;22.61;56.77
18678;BME280;9469;51.114;13.914;2022-09-30T10:15:25;98314.06;;;21.44;57.18
18678;BME280;9469;51.114;13.914;2022-09-30T10:20:31;98316.22;;;21.07;56.56
18678;BME280;9469;51.114;13.914;2022-09-30T10:25:54;98314.97;;;20.43;57.67
18678;BME280;9469;51.114;13.914;2022-09-30T10:31:03;98320.13;;;20.18;55.93
18678;BME280;9469;51.114;13.914;2022-09-30T10:36:17;98314.56;;;20.95;57.21
18678;BME280;9469;51.114;13.914;2022-09-30T10:41:27;98324.19;;;20.38;57.33
18678;BME280;9469;51.114;13.914;2022-09-30T10:46:34;98327.03;;;19.16;60.64
18678;BME280;9469;51.114;13.914;2022-09-30T10:51:44;98316.69;;;21.23;57.26
18678;BME280;9469;51.114;13.914;2022-09-30T10:56:53;98316.09;;;20.93;56.65
18678;BME280;9469;51.114;13.914;2022-09-30T11:02:04;98320.97;;;21.27;56.62
18678;BME280;9469;51.114;13.914;2022-09-30T11:07:26;98329.63;;;21.68;56.78
18678;BME280;9469;51.114;13.914;2022-09-30T11:12:41;98328.84;;;21.64;55.46
18678;BME280;9469;51.114;13.914;2022-09-30T11:17:52;98335.13;;;20.52;56.89
18678;BME280;9469;51.114;13.914;2022-09-30T11:23:01;98330.75;;;20.37;57.69
18678;BME280;9469;51.114;13.914;2022-09-30T11:28:31;98326.84;;;19.61;59.21
18678;BME280;9469;51.114;13.914;2022-09-30T11:33:50;98316.00;;;19.91;59.77
18678;BME280;9469;51.114;13.914;2022-09-30T11:45:03;98327.25;;;18.51;63.49
18678;BME280;9469;51.114;13.914;2022-09-30T11:50:27;98317.44;;;18.21;65.65
18678;BME280;9469;51.114;13.914;2022-09-30T11:55:44;98314.66;;;18.59;64.69
18678;BME280;9469;51.114;13.914;2022-09-30T12:01:11;98304.91;;;18.28;65.26
18678;BME280;9469;51.114;13.914;2022-09-30T12:06:25;98313.78;;;19.04;64.02
18678;BME280;9469;51.114;13.914;2022-09-30T12:11:36;98307.50;;;18.96;64.23
18678;BME280;9469;51.114;13.914;2022-09-30T12:16:47;98305.81;;;19.14;63.14
18678;BME280;9469;51.114;13.914;2022-09-30T12:21:56;98311.53;;;19.36;61.91
18678;BME280;9469;51.114;13.914;2022-09-30T12:27:03;98302.47;;;19.51;60.69
18678;BME280;9469;51.114;13.914;2022-09-30T12:38:01;98292.66;;;20.09;60.72
18678;BME280;9469;51.114;13.914;2022-09-30T12:48:53;98306.66;;;19.18;58.24
18678;BME280;9469;51.114;13.914;2022-09-30T12:54:01;98298.38;;;19.04;58.80
18678;BME280;9469;51.114;13.914;2022-09-30T12:59:11;98300.38;;;18.81;58.15
18678;BME280;9469;51.114;13.914;2022-09-30T13:04:35;98296.41;;;18.75;59.20
18678;BME280;9469;51.114;13.914;2022-09-30T13:10:00;98295.84;;;18.63;59.90
18678;BME280;9469;51.114;13.914;2022-09-30T13:15:22;98284.25;;;17.90;59.99
18678;BME280;9469;51.114;13.914;2022-09-30T13:20:52;98290.94;;;18.94;58.36
18678;BME280;9469;51.114;13.914;2022-09-30T13:25:59;98291.38;;;19.29;58.31
18678;BME280;9469;51.114;13.914;2022-09-30T13:31:13;98297.59;;;17.45;60.46
18678;BME280;9469;51.114;13.914;2022-09-30T13:36:29;98304.41;;;18.23;60.35
18678;BME280;9469;51.114;13.914;2022-09-30T13:41:36;98307.13;;;18.00;61.06
18678;BME280;9469;51.114;13.914;2022-09-30T13:46:46;98306.88;;;17.67;61.56
18678;BME280;9469;51.114;13.914;2022-09-30T13:51:58;98319.47;;;17.82;61.96
18678;BME280;9469;51.114;13.914;2022-09-30T13:57:06;98319.50;;;18.50;59.89
18678;BME280;9469;51.114;13.914;2022-09-30T14:02:41;98333.50;;;18.59;59.40
18678;BME280;9469;51.114;13.914;2022-09-30T14:08:05;98338.78;;;18.75;59.18
18678;BME280;9469;51.114;13.914;2022-09-30T14:13:23;98328.75;;;18.49;58.91
18678;BME280;9469;51.114;13.914;2022-09-30T14:18:57;98333.06;;;18.12;61.53
18678;BME280;9469;51.114;13.914;2022-09-30T14:24:13;98328.38;;;18.50;61.08
18678;BME280;9469;51.114;13.914;2022-09-30T14:29:24;98320.34;;;18.54;61.33
18678;BME280;9469;51.114;13.914;2022-09-30T14:34:32;98327.50;;;17.59;61.93
18678;BME280;9469;51.114;13.914;2022-09-30T14:39:40;98319.94;;;17.49;62.50
18678;BME280;9469;51.114;13.914;2022-09-30T14:44:47;98320.09;;;17.18;63.31
18678;BME280;9469;51.114;13.914;2022-09-30T14:49:52;98325.31;;;17.87;63.32
18678;BME280;9469;51.114;13.914;2022-09-30T14:55:00;98331.13;;;17.32;66.39
18678;BME280;9469;51.114;13.914;2022-09-30T15:00:18;98327.94;;;17.27;67.74
18678;BME280;9469;51.114;13.914;2022-09-30T15:05:24;98339.91;;;17.29;67.54
18678;BME280;9469;51.114;13.914;2022-09-30T15:10:32;98327.56;;;17.09;67.90
18678;BME280;9469;51.114;13.914;2022-09-30T15:15:37;98334.72;;;16.86;67.95
18678;BME280;9469;51.114;13.914;2022-09-30T15:20:43;98345.13;;;16.72;70.02
18678;BME280;9469;51.114;13.914;2022-09-30T15:25:51;98337.16;;;16.91;72.08
18678;BME280;9469;51.114;13.914;2022-09-30T15:30:57;98331.59;;;16.84;72.55
18678;BME280;9469;51.114;13.914;2022-09-30T15:36:05;98337.38;;;16.67;72.18
18678;BME280;9469;51.114;13.914;2022-09-30T15:41:13;98332.06;;;16.39;73.70
18678;BME280;9469;51.114;13.914;2022-09-30T15:46:21;98327.75;;;16.66;75.52
18678;BME280;9469;51.114;13.914;2022-09-30T15:51:33;98339.06;;;16.43;76.88
18678;BME280;9469;51.114;13.914;2022-09-30T15:56:41;98348.66;;;16.44;78.44
18678;BME280;9469;51.114;13.914;2022-09-30T16:01:48;98345.91;;;16.41;80.34
18678;BME280;9469;51.114;13.914;2022-09-30T16:06:55;98356.88;;;16.20;81.68
18678;BME280;9469;51.114;13.914;2022-09-30T16:12:06;98352.63;;;16.04;82.11
18678;BME280;9469;51.114;13.914;2022-09-30T16:17:16;98359.56;;;15.37;84.77
18678;BME280;9469;51.114;13.914;2022-09-30T16:22:49;98351.63;;;15.53;86.34
18678;BME280;9469;51.114;13.914;2022-09-30T16:27:59;98357.88;;;15.45;84.37
18678;BME280;9469;51.114;13.914;2022-09-30T16:33:10;98362.88;;;15.86;87.03
18678;BME280;9469;51.114;13.914;2022-09-30T16:38:17;98367.38;;;15.82;83.87
18678;BME280;9469;51.114;13.914;2022-09-30T16:43:27;98371.63;;;15.55;84.46
18678;BME280;9469;51.114;13.914;2022-09-30T16:48:32;98371.66;;;15.71;84.45
18678;BME280;9469;51.114;13.914;2022-09-30T16:53:39;98374.38;;;15.59;85.64
18678;BME280;9469;51.114;13.914;2022-09-30T16:58:47;98376.06;;;15.51;86.11
18678;BME280;9469;51.114;13.914;2022-09-30T17:03:52;98367.19;;;15.35;88.00
18678;BME280;9469;51.114;13.914;2022-09-30T17:09:01;98378.69;;;15.24;87.28
18678;BME280;9469;51.114;13.914;2022-09-30T17:14:09;98388.28;;;15.25;89.62
18678;BME280;9469;51.114;13.914;2022-09-30T17:19:17;98391.88;;;15.04;91.18
18678;BME280;9469;51.114;13.914;2022-09-30T17:24:23;98394.34;;;14.85;91.44
18678;BME280;9469;51.114;13.914;2022-09-30T17:29:30;98386.88;;;14.67;91.03
18678;BME280;9469;51.114;13.914;2022-09-30T17:34:43;98401.56;;;14.49;92.08
18678;BME280;9469;51.114;13.914;2022-09-30T17:39:48;98405.34;;;14.35;94.59
18678;BME280;9469;51.114;13.914;2022-09-30T17:44:55;98407.25;;;14.14;95.20
18678;BME280;9469;51.114;13.914;2022-09-30T17:50:03;98406.22;;;14.07;97.55
18678;BME280;9469;51.114;13.914;2022-09-30T17:55:08;98395.00;;;13.81;96.48
18678;BME280;9469;51.114;13.914;2022-09-30T18:00:16;98400.81;;;13.62;97.61
18678;BME280;9469;51.114;13.914;2022-09-30T18:05:21;98406.47;;;13.60;99.78
18678;BME280;9469;51.114;13.914;2022-09-30T18:10:30;98403.88;;;13.31;100.00
18678;BME280;9469;51.114;13.914;2022-09-30T18:15:39;98412.97;;;13.01;100.00
18678;BME280;9469;51.114;13.914;2022-09-30T18:20:48;98409.03;;;12.98;100.00
18678;BME280;9469;51.114;13.914;2022-09-30T18:25:55;98408.91;;;12.95;100.00
18678;BME280;9469;51.114;13.914;2022-09-30T18:31:06;98412.97;;;13.01;100.00
18678;BME280;9469;51.114;13.914;2022-09-30T18:36:11;98412.78;;;12.77;100.00
18678;BME280;9469;51.114;13.914;2022-09-30T18:41:16;98426.44;;;12.75;100.00
18678;BME280;9469;51.114;13.914;2022-09-30T18:46:24;98421.31;;;12.62;100.00
18678;BME280;9469;51.114;13.914;2022-09-30T18:51:30;98419.44;;;12.54;100.00
18678;BME280;9469;51.114;13.914;2022-09-30T18:56:38;98408.97;;;12.40;100.00
18678;BME280;9469;51.114;13.914;2022-09-30T19:01:47;98412.00;;;12.21;100.00
18678;BME280;9469;51.114;13.914;2022-09-30T19:06:54;98413.91;;;12.12;100.00
18678;BME280;9469;51.114;13.914;2022-09-30T19:12:00;98418.94;;;11.97;100.00
18678;BME280;9469;51.114;13.914;2022-09-30T19:17:07;98418.81;;;11.93;100.00
18678;BME280;9469;51.114;13.914;2022-09-30T19:22:12;98413.78;;;11.66;100.00
18678;BME280;9469;51.114;13.914;2022-09-30T19:27:17;98413.00;;;11.74;100.00
18678;BME280;9469;51.114;13.914;2022-09-30T19:32:26;98411.72;;;11.63;100.00
18678;BME280;9469;51.114;13.914;2022-09-30T19:37:35;98404.53;;;11.46;100.00
18678;BME280;9469;51.114;13.914;2022-09-30T19:42:42;98401.69;;;11.43;100.00
18678;BME280;9469;51.114;13.914;2022-09-30T19:47:51;98396.66;;;11.16;100.00
18678;BME280;9469;51.114;13.914;2022-09-30T19:52:57;98389.09;;;10.92;100.00
18678;BME280;9469;51.114;13.914;2022-09-30T19:58:02;98388.31;;;11.00;100.00
18678;BME280;9469;51.114;13.914;2022-09-30T20:03:10;98389.56;;;10.94;100.00
18678;BME280;9469;51.114;13.914;2022-09-30T20:08:16;98391.56;;;10.89;100.00
18678;BME280;9469;51.114;13.914;2022-09-30T20:13:22;98391.09;;;10.47;100.00
18678;BME280;9469;51.114;13.914;2022-09-30T20:18:30;98404.34;;;10.69;100.00
18678;BME280;9469;51.114;13.914;2022-09-30T20:23:36;98399.84;;;10.39;100.00
18678;BME280;9469;51.114;13.914;2022-09-30T20:28:42;98394.66;;;10.34;100.00
18678;BME280;9469;51.114;13.914;2022-09-30T20:33:53;98392.69;;;10.18;100.00
18678;BME280;9469;51.114;13.914;2022-09-30T20:39:00;98396.38;;;9.86;100.00
18678;BME280;9469;51.114;13.914;2022-09-30T20:44:08;98400.47;;;9.92;100.00
18678;BME280;9469;51.114;13.914;2022-09-30T20:49:17;98407.47;;;10.10;100.00
18678;BME280;9469;51.114;13.914;2022-09-30T20:54:21;98411.44;;;10.13;100.00
18678;BME280;9469;51.114;13.914;2022-09-30T20:59:27;98408.44;;;10.14;100.00
18678;BME280;9469;51.114;13.914;2022-09-30T21:04:35;98417.09;;;10.20;100.00
18678;BME280;9469;51.114;13.914;2022-09-30T21:09:40;98421.78;;;10.23;100.00
18678;BME280;9469;51.114;13.914;2022-09-30T21:14:46;98421.97;;;10.04;100.00
18678;BME280;9469;51.114;13.914;2022-09-30T21:19:54;98423.06;;;10.03;100.00
18678;BME280;9469;51.114;13.914;2022-09-30T21:24:59;98422.81;;;9.91;100.00
18678;BME280;9469;51.114;13.914;2022-09-30T21:30:06;98422.63;;;9.87;100.00
18678;BME280;9469;51.114;13.914;2022-09-30T21:35:15;98420.03;;;9.74;100.00
18678;BME280;9469;51.114;13.914;2022-09-30T21:40:21;98424.00;;;9.63;100.00
18678;BME280;9469;51.114;13.914;2022-09-30T21:45:28;98415.84;;;9.59;100.00
18678;BME280;9469;51.114;13.914;2022-09-30T21:50:36;98416.34;;;9.48;100.00
18678;BME280;9469;51.114;13.914;2022-09-30T21:55:42;98405.69;;;9.25;100.00
18678;BME280;9469;51.114;13.914;2022-09-30T22:00:46;98407.78;;;9.15;100.00
18678;BME280;9469;51.114;13.914;2022-09-30T22:05:56;98408.31;;;9.39;100.00
18678;BME280;9469;51.114;13.914;2022-09-30T22:11:01;98405.66;;;9.39;100.00
18678;BME280;9469;51.114;13.914;2022-09-30T22:16:07;98412.53;;;9.04;100.00
18678;BME280;9469;51.114;13.914;2022-09-30T22:21:15;98411.53;;;9.00;100.00
18678;BME280;9469;51.114;13.914;2022-09-30T22:26:21;98404.56;;;9.18;100.00
18678;BME280;9469;51.114;13.914;2022-09-30T22:31:28;98407.81;;;9.01;100.00
18678;BME280;9469;51.114;13.914;2022-09-30T22:36:37;98411.94;;;8.94;100.00
18678;BME280;9469;51.114;13.914;2022-09-30T22:41:56;98409.19;;;8.85;100.00
18678;BME280;9469;51.114;13.914;2022-09-30T22:47:02;98414.31;;;8.68;100.00
18678;BME280;9469;51.114;13.914;2022-09-30T22:52:09;98412.53;;;8.63;100.00
18678;BME280;9469;51.114;13.914;2022-09-30T22:57:14;98413.63;;;8.62;100.00
18678;BME280;9469;51.114;13.914;2022-09-30T23:02:19;98418.81;;;8.68;100.00
18678;BME280;9469;51.114;13.914;2022-09-30T23:07:27;98422.94;;;8.74;100.00
18678;BME280;9469;51.114;13.914;2022-09-30T23:12:32;98429.53;;;8.76;100.00
18678;BME280;9469;51.114;13.914;2022-09-30T23:17:37;98432.09;;;8.68;100.00
18678;BME280;9469;51.114;13.914;2022-09-30T23:22:44;98435.94;;;8.75;100.00
18678;BME280;9469;51.114;13.914;2022-09-30T23:27:49;98432.56;;;8.70;100.00
18678;BME280;9469;51.114;13.914;2022-09-30T23:32:54;98443.34;;;8.59;100.00
18678;BME280;9469;51.114;13.914;2022-09-30T23:38:02;98437.56;;;8.57;100.00
18678;BME280;9469;51.114;13.914;2022-09-30T23:43:07;98436.78;;;8.43;100.00
18678;BME280;9469;51.114;13.914;2022-09-30T23:48:11;98431.94;;;8.32;100.00
18678;BME280;9469;51.114;13.914;2022-09-30T23:53:21;98429.19;;;8.37;100.00
18678;BME280;9469;51.114;13.914;2022-09-30T23:58:26;98434.59;;;8.32;100.00
